Time;durP1;ratioP1;P1;durP2;ratioP2;P2;SDS_P1;SDS_P2;PMS_P1;PMS_P2;Temp;Humidity;BMP_temperature;BMP_pressure;BME280_temperature;BME280_humidity;BME280_pressure;Samples;Min_cycle;Max_cycle;Signal;HPM_P1;HPM_P2
2023/06/12 00:01:23;;;;;;;5.68;5.28;;;;;;;;;;5083566;28;20208;-69
2023/06/12 00:03:49;;;;;;;6.20;5.65;;;;;;;;;;5083155;28;20208;-69
2023/06/12 00:06:16;;;;;;;6.10;5.63;;;;;;;;;;5083405;28;20196;-69
2023/06/12 00:08:43;;;;;;;5.75;5.32;;;;;;;;;;5082758;28;20224;-69
2023/06/12 00:11:12;;;;;;;5.53;5.03;;;;;;;;;;5083429;28;20224;-69
2023/06/12 00:13:40;;;;;;;4.70;4.40;;;;;;;;;;5082869;28;20196;-69
2023/06/12 00:16:06;;;;;;;5.18;4.80;;;;;;;;;;5075041;28;20512;-69
2023/06/12 00:18:32;;;;;;;5.07;4.78;;;;;;;;;;5082907;28;20215;-69
2023/06/12 00:20:59;;;;;;;5.20;4.85;;;;;;;;;;5082913;28;20246;-69
2023/06/12 00:23:25;;;;;;;6.38;4.50;;;;;;;;;;5082837;28;20222;-69
2023/06/12 00:25:51;;;;;;;5.00;4.60;;;;;;;;;;5082875;28;20250;-69
2023/06/12 00:28:17;;;;;;;5.03;4.68;;;;;;;;;;5082572;28;20228;-69
2023/06/12 00:30:45;;;;;;;4.53;4.22;;;;;;;;;;5082478;28;20222;-69
2023/06/12 00:33:11;;;;;;;5.95;4.70;;;;;;;;;;5082909;28;20258;-69
2023/06/12 00:35:38;;;;;;;5.07;4.57;;;;;;;;;;5082698;28;20546;-69
2023/06/12 00:38:06;;;;;;;4.57;4.30;;;;;;;;;;5082097;28;20234;-69
2023/06/12 00:40:32;;;;;;;5.10;4.70;;;;;;;;;;5082526;28;20242;-69
2023/06/12 00:42:58;;;;;;;4.95;4.40;;;;;;;;;;5082364;28;20204;-69
2023/06/12 00:45:26;;;;;;;4.82;4.35;;;;;;;;;;5082461;28;20234;-69
2023/06/12 00:47:54;;;;;;;4.97;4.55;;;;;;;;;;5082108;28;20457;-69
2023/06/12 00:50:25;;;;;;;5.10;4.80;;;;;;;;;;5081867;28;20200;-69
2023/06/12 00:52:52;;;;;;;5.15;4.65;;;;;;;;;;5082317;28;20207;-69
2023/06/12 00:55:18;;;;;;;5.93;5.40;;;;;;;;;;5082166;28;20242;-69
2023/06/12 00:57:46;;;;;;;4.88;4.57;;;;;;;;;;5082185;28;20196;-69
2023/06/12 01:00:14;;;;;;;5.00;4.70;;;;;;;;;;5082507;28;20391;-69
2023/06/12 01:02:42;;;;;;;4.65;4.35;;;;;;;;;;5082319;28;20398;-69
2023/06/12 01:05:11;;;;;;;5.13;4.70;;;;;;;;;;5074168;28;20501;-69
2023/06/12 01:07:40;;;;;;;5.35;4.88;;;;;;;;;;5081442;28;20585;-69
2023/06/12 01:10:11;;;;;;;6.05;4.57;;;;;;;;;;5082190;28;20271;-69
2023/06/12 01:12:38;;;;;;;5.03;4.60;;;;;;;;;;5082200;28;20204;-69
2023/06/12 01:15:05;;;;;;;5.13;4.50;;;;;;;;;;5082090;28;20206;-69
2023/06/12 01:17:31;;;;;;;5.15;4.75;;;;;;;;;;5082038;28;20690;-69
2023/06/12 01:19:57;;;;;;;5.72;5.22;;;;;;;;;;5081964;28;20543;-69
2023/06/12 01:22:27;;;;;;;5.03;4.60;;;;;;;;;;5081843;28;20263;-69
2023/06/12 01:25:11;;;;;;;5.00;4.50;;;;;;;;;;5081967;28;20201;-69
2023/06/12 01:27:47;;;;;;;5.78;5.38;;;;;;;;;;5060442;28;20228;-69
2023/06/12 01:30:37;;;;;;;4.80;4.50;;;;;;;;;;5074338;28;20219;-69
2023/06/12 01:33:08;;;;;;;4.63;4.22;;;;;;;;;;5071237;28;20200;-68
2023/06/12 01:35:37;;;;;;;5.25;4.70;;;;;;;;;;5081925;28;20196;-68
2023/06/12 01:38:06;;;;;;;4.80;4.50;;;;;;;;;;5081560;28;20278;-68
2023/06/12 01:40:33;;;;;;;5.50;5.10;;;;;;;;;;5082066;28;20242;-68
2023/06/12 01:43:00;;;;;;;5.10;4.78;;;;;;;;;;5081846;28;20201;-68
2023/06/12 01:45:26;;;;;;;5.55;5.10;;;;;;;;;;5081577;28;20314;-68
2023/06/12 01:47:52;;;;;;;5.60;5.10;;;;;;;;;;5081707;28;20220;-68
2023/06/12 01:50:20;;;;;;;5.15;4.85;;;;;;;;;;5081860;28;20215;-68
2023/06/12 01:52:46;;;;;;;5.53;5.13;;;;;;;;;;5081574;28;20204;-68
2023/06/12 01:55:13;;;;;;;4.95;4.65;;;;;;;;;;5081606;28;20394;-68
2023/06/12 01:57:40;;;;;;;6.00;5.50;;;;;;;;;;5081413;28;20504;-68
2023/06/12 02:00:08;;;;;;;5.63;4.95;;;;;;;;;;5081364;28;20200;-68
2023/06/12 02:02:34;;;;;;;5.82;5.38;;;;;;;;;;5085139;28;20231;-68
2023/06/12 02:05:00;;;;;;;5.85;5.45;;;;;;;;;;5085493;28;20207;-68
2023/06/12 02:07:28;;;;;;;6.65;5.85;;;;;;;;;;5085166;28;20398;-68
2023/06/12 02:09:54;;;;;;;6.57;5.47;;;;;;;;;;5085289;28;20401;-68
2023/06/12 02:12:21;;;;;;;5.75;5.25;;;;;;;;;;5085311;28;20196;-68
2023/06/12 02:14:47;;;;;;;6.13;5.57;;;;;;;;;;5085429;28;20200;-68
2023/06/12 02:17:17;;;;;;;5.63;5.28;;;;;;;;;;5085116;28;20523;-68
2023/06/12 02:19:44;;;;;;;6.05;5.70;;;;;;;;;;5085346;28;20200;-68
2023/06/12 02:22:10;;;;;;;5.72;5.32;;;;;;;;;;5085247;28;20211;-69
2023/06/12 02:24:39;;;;;;;5.88;5.40;;;;;;;;;;5085053;28;20200;-69
2023/06/12 02:27:05;;;;;;;6.53;6.03;;;;;;;;;;5084706;28;20631;-69
2023/06/12 02:29:32;;;;;;;5.55;5.18;;;;;;;;;;5085367;28;20217;-69
2023/06/12 02:31:58;;;;;;;6.28;5.78;;;;;;;;;;5085029;28;20532;-69
2023/06/12 02:34:24;;;;;;;7.10;5.00;;;;;;;;;;5084518;28;20231;-69
2023/06/12 02:36:50;;;;;;;5.65;5.25;;;;;;;;;;5083776;28;20200;-69
2023/06/12 02:39:17;;;;;;;6.18;5.30;;;;;;;;;;5083762;28;20519;-69
2023/06/12 02:41:46;;;;;;;5.30;5.00;;;;;;;;;;5083727;28;20222;-69
2023/06/12 02:44:12;;;;;;;5.50;5.10;;;;;;;;;;5083854;28;20196;-69
2023/06/12 02:46:50;;;;;;;5.88;5.47;;;;;;;;;;5083728;28;20196;-69
2023/06/12 02:49:16;;;;;;;6.63;4.57;;;;;;;;;;5075724;28;20223;-69
2023/06/12 02:51:42;;;;;;;5.70;5.30;;;;;;;;;;5083672;28;20526;-69
2023/06/12 02:54:09;;;;;;;5.35;5.03;;;;;;;;;;5083346;28;20512;-69
2023/06/12 02:56:35;;;;;;;5.72;5.22;;;;;;;;;;5083739;28;20505;-69
2023/06/12 02:59:03;;;;;;;5.38;4.85;;;;;;;;;;5083685;28;20197;-69
2023/06/12 03:01:30;;;;;;;5.82;5.32;;;;;;;;;;5084828;28;20242;-69
2023/06/12 03:03:58;;;;;;;5.47;5.03;;;;;;;;;;5083816;28;20561;-69
2023/06/12 03:06:26;;;;;;;5.20;4.90;;;;;;;;;;5083785;28;20242;-69
2023/06/12 03:08:52;;;;;;;5.25;4.85;;;;;;;;;;5082986;28;20757;-69
2023/06/12 03:11:20;;;;;;;5.82;5.32;;;;;;;;;;5083353;28;20271;-69
2023/06/12 03:13:46;;;;;;;6.00;5.45;;;;;;;;;;5082683;28;20212;-69
2023/06/12 03:16:15;;;;;;;5.28;4.88;;;;;;;;;;5083812;28;20203;-69
2023/06/12 03:18:41;;;;;;;6.07;5.13;;;;;;;;;;5083524;28;20199;-69
2023/06/12 03:21:07;;;;;;;5.68;5.38;;;;;;;;;;5083961;28;20392;-69
2023/06/12 03:23:33;;;;;;;6.57;5.43;;;;;;;;;;5084288;28;20222;-69
2023/06/12 03:26:00;;;;;;;5.68;5.38;;;;;;;;;;5084116;28;20200;-69
2023/06/12 03:28:26;;;;;;;5.30;5.00;;;;;;;;;;5083739;28;20279;-69
2023/06/12 03:30:52;;;;;;;6.47;5.88;;;;;;;;;;5083926;28;20276;-69
2023/06/12 03:33:20;;;;;;;6.03;5.53;;;;;;;;;;5083904;28;20208;-69
2023/06/12 03:35:46;;;;;;;5.05;4.78;;;;;;;;;;5083819;28;20231;-69
2023/06/12 03:38:12;;;;;;;5.57;5.13;;;;;;;;;;5083750;28;20200;-69
2023/06/12 03:40:39;;;;;;;5.32;4.97;;;;;;;;;;5083919;28;20492;-69
2023/06/12 03:43:05;;;;;;;5.68;5.15;;;;;;;;;;5083872;28;20538;-69
2023/06/12 03:45:31;;;;;;;6.63;5.32;;;;;;;;;;5083669;28;20508;-69
2023/06/12 03:47:57;;;;;;;4.65;4.45;;;;;;;;;;5083122;28;20526;-69
2023/06/12 03:50:25;;;;;;;5.68;5.18;;;;;;;;;;5083505;28;20222;-69
2023/06/12 03:52:52;;;;;;;5.63;5.20;;;;;;;;;;5083832;28;20523;-69
2023/06/12 03:55:20;;;;;;;6.43;5.30;;;;;;;;;;5075242;28;20203;-69
2023/06/12 03:57:46;;;;;;;5.75;5.35;;;;;;;;;;5083235;28;20207;-69
2023/06/12 04:00:13;;;;;;;6.40;6.00;;;;;;;;;;5083440;28;20200;-69
2023/06/12 04:02:39;;;;;;;5.35;4.93;;;;;;;;;;5083411;28;20399;-69
2023/06/12 04:05:08;;;;;;;5.30;5.00;;;;;;;;;;5083075;28;20267;-69
2023/06/12 04:07:36;;;;;;;6.13;5.47;;;;;;;;;;5082983;28;20563;-69
2023/06/12 04:10:03;;;;;;;5.95;5.45;;;;;;;;;;5083280;28;20246;-69
2023/06/12 04:12:29;;;;;;;5.53;5.22;;;;;;;;;;5083544;28;20197;-69
2023/06/12 04:14:56;;;;;;;5.50;5.20;;;;;;;;;;5082929;28;20200;-69
2023/06/12 04:17:23;;;;;;;5.72;5.32;;;;;;;;;;5082831;28;20205;-72
2023/06/12 04:19:49;;;;;;;6.05;5.55;;;;;;;;;;5083446;28;20211;-72
2023/06/12 04:22:16;;;;;;;6.28;5.88;;;;;;;;;;5083121;28;20224;-72
2023/06/12 04:24:45;;;;;;;5.60;5.20;;;;;;;;;;5082974;28;20201;-72
2023/06/12 04:27:11;;;;;;;5.85;5.45;;;;;;;;;;5082623;28;20228;-72
2023/06/12 04:29:38;;;;;;;5.78;5.32;;;;;;;;;;5082816;28;20223;-72
2023/06/12 04:32:06;;;;;;;5.43;5.13;;;;;;;;;;5082666;28;20396;-72
2023/06/12 04:34:33;;;;;;;5.70;5.30;;;;;;;;;;5083038;28;20218;-72
2023/06/12 04:36:59;;;;;;;5.55;5.20;;;;;;;;;;5082566;28;20200;-72
2023/06/12 04:39:26;;;;;;;11.27;5.25;;;;;;;;;;5082857;28;20193;-72
2023/06/12 04:41:53;;;;;;;5.75;5.35;;;;;;;;;;5082654;28;20200;-72
2023/06/12 04:44:21;;;;;;;6.03;5.50;;;;;;;;;;5074356;28;20207;-72
2023/06/12 04:46:48;;;;;;;5.88;5.47;;;;;;;;;;5082593;28;20500;-72
2023/06/12 04:49:15;;;;;;;6.35;5.88;;;;;;;;;;5082631;28;20291;-72
2023/06/12 04:51:42;;;;;;;6.93;6.45;;;;;;;;;;5082580;28;20204;-72
2023/06/12 04:54:10;;;;;;;6.20;5.80;;;;;;;;;;5082278;28;20520;-72
2023/06/12 04:56:40;;;;;;;6.57;6.07;;;;;;;;;;5082266;28;20440;-72
2023/06/12 04:59:08;;;;;;;6.20;5.90;;;;;;;;;;5082186;28;20267;-72
2023/06/12 05:01:34;;;;;;;7.07;6.47;;;;;;;;;;5082808;28;20196;-72
2023/06/12 05:04:01;;;;;;;7.43;6.82;;;;;;;;;;5082731;28;20205;-72
2023/06/12 05:06:28;;;;;;;6.70;6.20;;;;;;;;;;5082526;28;20196;-72
2023/06/12 05:08:54;;;;;;;6.80;6.28;;;;;;;;;;5082034;28;20220;-72
2023/06/12 05:11:21;;;;;;;7.18;6.53;;;;;;;;;;5082088;28;20201;-72
2023/06/12 05:13:47;;;;;;;7.35;6.85;;;;;;;;;;5082499;28;20215;-72
2023/06/12 05:16:15;;;;;;;7.10;6.43;;;;;;;;;;5082358;28;20215;-72
2023/06/12 05:18:41;;;;;;;7.00;6.00;;;;;;;;;;5082030;28;20504;-72
2023/06/12 05:21:08;;;;;;;8.57;6.72;;;;;;;;;;5082350;28;20261;-72
2023/06/12 05:23:34;;;;;;;6.75;6.15;;;;;;;;;;5082418;28;20204;-72
2023/06/12 05:26:00;;;;;;;7.30;5.80;;;;;;;;;;5081978;28;20523;-72
2023/06/12 05:28:26;;;;;;;6.50;6.03;;;;;;;;;;5081756;28;20558;-72
2023/06/12 05:30:53;;;;;;;7.07;6.15;;;;;;;;;;5082256;28;20414;-72
2023/06/12 05:33:21;;;;;;;9.00;6.38;;;;;;;;;;5082075;28;20427;-72
2023/06/12 05:35:49;;;;;;;7.03;6.13;;;;;;;;;;5081667;28;20200;-72
2023/06/12 05:38:15;;;;;;;5.90;5.40;;;;;;;;;;5081810;28;20207;-72
2023/06/12 05:40:41;;;;;;;8.13;6.10;;;;;;;;;;5081958;28;20238;-72
2023/06/12 05:43:08;;;;;;;5.60;5.20;;;;;;;;;;5081678;28;20208;-72
2023/06/12 05:45:35;;;;;;;5.75;5.35;;;;;;;;;;5082183;28;20218;-72
2023/06/12 05:48:01;;;;;;;5.60;5.10;;;;;;;;;;5081831;28;20223;-72
2023/06/12 05:50:28;;;;;;;5.65;5.25;;;;;;;;;;5081766;28;20215;-72
2023/06/12 05:52:55;;;;;;;6.47;5.30;;;;;;;;;;5081760;28;20211;-72
2023/06/12 05:55:21;;;;;;;6.15;5.45;;;;;;;;;;5081595;28;20196;-57
2023/06/12 05:57:47;;;;;;;5.00;4.60;;;;;;;;;;5081540;28;20209;-57
2023/06/12 06:00:14;;;;;;;6.63;4.72;;;;;;;;;;5081554;28;20234;-57
2023/06/12 06:02:42;;;;;;;5.53;5.13;;;;;;;;;;5074554;28;20656;-57
2023/06/12 06:05:09;;;;;;;6.43;4.75;;;;;;;;;;5076331;28;20226;-57
2023/06/12 06:07:36;;;;;;;5.70;5.07;;;;;;;;;;5076063;28;20219;-57
2023/06/12 06:10:03;;;;;;;4.60;4.32;;;;;;;;;;5075060;28;20235;-57
2023/06/12 06:12:29;;;;;;;9.20;5.03;;;;;;;;;;5072156;28;20276;-56
2023/06/12 06:14:56;;;;;;;10.07;5.45;;;;;;;;;;5072689;28;20269;-58
2023/06/12 06:17:22;;;;;;;5.00;4.70;;;;;;;;;;5072558;28;20246;-58
2023/06/12 06:19:48;;;;;;;5.32;4.82;;;;;;;;;;5070065;28;20232;-58
2023/06/12 06:22:17;;;;;;;5.30;4.68;;;;;;;;;;5074067;28;20205;-58
2023/06/12 06:24:45;;;;;;;6.05;4.72;;;;;;;;;;5075370;28;20306;-59
2023/06/12 06:27:11;;;;;;;5.43;4.85;;;;;;;;;;5074479;28;20583;-59
2023/06/12 06:29:37;;;;;;;5.25;4.88;;;;;;;;;;5075077;28;20299;-59
2023/06/12 06:32:04;;;;;;;5.82;4.97;;;;;;;;;;5073917;28;20224;-58
2023/06/12 06:34:30;;;;;;;5.68;4.90;;;;;;;;;;5072347;28;20456;-58
2023/06/12 06:36:57;;;;;;;5.00;4.75;;;;;;;;;;5072411;28;20279;-58
2023/06/12 06:39:23;;;;;;;5.82;5.43;;;;;;;;;;5073253;28;20211;-59
2023/06/12 06:41:50;;;;;;;7.65;4.80;;;;;;;;;;5073084;28;20213;-59
2023/06/12 06:44:17;;;;;;;6.03;4.90;;;;;;;;;;5073610;28;20220;-57
2023/06/12 06:46:43;;;;;;;5.07;4.70;;;;;;;;;;5072977;28;20219;-59
2023/06/12 06:49:09;;;;;;;5.78;5.28;;;;;;;;;;5075673;28;20212;-59
2023/06/12 06:51:36;;;;;;;5.28;4.85;;;;;;;;;;5076385;28;20216;-58
2023/06/12 06:54:02;;;;;;;5.43;4.93;;;;;;;;;;5076537;28;20221;-59
2023/06/12 06:56:30;;;;;;;5.50;4.97;;;;;;;;;;5076596;28;21261;-59
2023/06/12 06:58:57;;;;;;;5.28;4.55;;;;;;;;;;5076780;28;20463;-58
2023/06/12 07:01:24;;;;;;;4.65;4.25;;;;;;;;;;5076816;28;20224;-59
2023/06/12 07:03:51;;;;;;;6.68;4.90;;;;;;;;;;5075904;28;20430;-58
2023/06/12 07:06:17;;;;;;;5.10;4.75;;;;;;;;;;5075960;28;20211;-59
2023/06/12 07:08:43;;;;;;;5.25;4.93;;;;;;;;;;5075635;28;20282;-59
2023/06/12 07:11:09;;;;;;;6.55;4.97;;;;;;;;;;5075282;28;20484;-59
2023/06/12 07:13:37;;;;;;;5.28;4.97;;;;;;;;;;5075896;28;20223;-59
2023/06/12 07:16:05;;;;;;;4.97;4.63;;;;;;;;;;5076273;28;20452;-59
2023/06/12 07:18:31;;;;;;;6.00;4.35;;;;;;;;;;5068176;28;20208;-59
2023/06/12 07:20:57;;;;;;;5.47;5.07;;;;;;;;;;5075348;28;20381;-58
2023/06/12 07:23:24;;;;;;;6.00;4.63;;;;;;;;;;5075745;28;20208;-59
2023/06/12 07:25:50;;;;;;;6.10;4.63;;;;;;;;;;5076473;28;20573;-59
2023/06/12 07:28:17;;;;;;;5.30;4.55;;;;;;;;;;5075682;28;20563;-59
2023/06/12 07:30:43;;;;;;;5.32;4.55;;;;;;;;;;5075163;28;20460;-59
2023/06/12 07:33:11;;;;;;;4.68;4.28;;;;;;;;;;5075362;28;20208;-59
2023/06/12 07:35:37;;;;;;;5.18;4.88;;;;;;;;;;5074700;28;20214;-59
2023/06/12 07:38:03;;;;;;;4.70;4.43;;;;;;;;;;5074945;28;20215;-59
2023/06/12 07:40:30;;;;;;;9.05;4.53;;;;;;;;;;5075131;28;20211;-59
2023/06/12 07:42:56;;;;;;;5.43;4.93;;;;;;;;;;5075791;28;20212;-59
2023/06/12 07:45:22;;;;;;;5.28;4.55;;;;;;;;;;5074548;28;20211;-58
2023/06/12 07:47:49;;;;;;;7.10;4.25;;;;;;;;;;5074629;28;20563;-58
2023/06/12 07:50:19;;;;;;;5.15;4.75;;;;;;;;;;5074424;28;20224;-58
2023/06/12 07:52:45;;;;;;;4.45;4.13;;;;;;;;;;5074622;28;20554;-58
2023/06/12 07:55:11;;;;;;;7.03;5.25;;;;;;;;;;5074456;28;20219;-55
2023/06/12 07:57:38;;;;;;;4.82;4.43;;;;;;;;;;5073081;28;20546;-58
2023/06/12 08:00:07;;;;;;;5.10;4.50;;;;;;;;;;5075684;28;20287;-58
2023/06/12 08:02:34;;;;;;;5.85;4.90;;;;;;;;;;5075224;28;20527;-57
2023/06/12 08:05:00;;;;;;;5.60;4.10;;;;;;;;;;5076627;28;20325;-59
2023/06/12 08:07:28;;;;;;;6.22;4.63;;;;;;;;;;5075471;28;20212;-57
2023/06/12 08:09:54;;;;;;;4.65;4.10;;;;;;;;;;5076034;28;20224;-57
2023/06/12 08:12:21;;;;;;;4.82;4.43;;;;;;;;;;5076234;28;20211;-58
2023/06/12 08:14:48;;;;;;;4.97;4.57;;;;;;;;;;5075983;28;20216;-57
2023/06/12 08:17:15;;;;;;;4.97;4.57;;;;;;;;;;5074939;28;20208;-58
2023/06/12 08:19:41;;;;;;;4.30;4.10;;;;;;;;;;5076026;28;20261;-58
2023/06/12 08:22:08;;;;;;;6.07;4.03;;;;;;;;;;5075515;28;20212;-58
2023/06/12 08:24:36;;;;;;;4.90;4.47;;;;;;;;;;5075969;28;20211;-57
2023/06/12 08:27:02;;;;;;;4.50;4.20;;;;;;;;;;5075778;28;20478;-58
2023/06/12 08:29:28;;;;;;;4.65;4.38;;;;;;;;;;5075627;28;20226;-58
2023/06/12 08:31:55;;;;;;;5.30;4.07;;;;;;;;;;5075983;28;20233;-58
2023/06/12 08:34:24;;;;;;;4.53;4.22;;;;;;;;;;5076282;28;20601;-58
2023/06/12 08:36:50;;;;;;;5.28;4.78;;;;;;;;;;5076064;28;20212;-58
2023/06/12 08:39:16;;;;;;;4.70;4.32;;;;;;;;;;5076633;28;20589;-58
2023/06/12 08:41:50;;;;;;;10.43;3.60;;;;;;;;;;5075623;28;20253;-58
2023/06/12 08:44:16;;;;;;;4.63;4.30;;;;;;;;;;5075673;28;20227;-58
2023/06/12 08:46:43;;;;;;;5.47;4.43;;;;;;;;;;5076184;28;20219;-57
2023/06/12 08:49:09;;;;;;;4.47;4.28;;;;;;;;;;5075589;28;20211;-58
2023/06/12 08:51:37;;;;;;;5.53;4.68;;;;;;;;;;5075400;28;20424;-58
2023/06/12 08:54:04;;;;;;;4.30;4.00;;;;;;;;;;5075758;28;20216;-57
2023/06/12 08:56:30;;;;;;;4.65;4.25;;;;;;;;;;5075201;28;20541;-56
2023/06/12 08:58:58;;;;;;;6.35;3.78;;;;;;;;;;5075230;28;20220;-58
2023/06/12 09:01:27;;;;;;;4.10;3.80;;;;;;;;;;5075602;28;20215;-58
2023/06/12 09:03:55;;;;;;;4.28;3.92;;;;;;;;;;5075614;28;20211;-58
2023/06/12 09:06:23;;;;;;;4.68;4.28;;;;;;;;;;5075788;28;20362;-58
2023/06/12 09:08:49;;;;;;;4.65;4.35;;;;;;;;;;5074986;28;20226;-57
2023/06/12 09:11:15;;;;;;;3.85;3.65;;;;;;;;;;5074100;28;20247;-58
2023/06/12 09:13:42;;;;;;;4.13;3.92;;;;;;;;;;5075077;28;20211;-58
2023/06/12 09:16:12;;;;;;;4.25;3.85;;;;;;;;;;5076162;28;20218;-57
2023/06/12 09:18:47;;;;;;;4.85;4.40;;;;;;;;;;5075098;28;20393;-58
2023/06/12 09:21:14;;;;;;;3.65;3.45;;;;;;;;;;5075284;28;20211;-58
2023/06/12 09:23:43;;;;;;;5.25;3.85;;;;;;;;;;5075073;28;20219;-58
2023/06/12 09:26:11;;;;;;;4.15;3.92;;;;;;;;;;5075586;28;20218;-58
2023/06/12 09:28:41;;;;;;;5.82;4.20;;;;;;;;;;5067207;28;20555;-58
2023/06/12 09:31:08;;;;;;;4.53;4.15;;;;;;;;;;5075081;28;20235;-58
2023/06/12 09:33:37;;;;;;;3.85;3.65;;;;;;;;;;5075851;28;20447;-58
2023/06/12 09:36:04;;;;;;;4.38;3.97;;;;;;;;;;5074528;28;20218;-57
2023/06/12 09:38:31;;;;;;;4.18;4.00;;;;;;;;;;5075445;28;20216;-58
2023/06/12 09:40:57;;;;;;;6.68;4.15;;;;;;;;;;5074846;28;20399;-57
2023/06/12 09:43:24;;;;;;;4.32;4.00;;;;;;;;;;5074671;28;20207;-58
2023/06/12 09:45:51;;;;;;;5.95;4.05;;;;;;;;;;5074986;28;20211;-58
2023/06/12 09:48:17;;;;;;;7.68;4.07;;;;;;;;;;5074468;28;20212;-59
2023/06/12 09:50:46;;;;;;;4.57;4.18;;;;;;;;;;5073908;28;20227;-58
2023/06/12 09:53:13;;;;;;;4.75;4.13;;;;;;;;;;5074264;28;20881;-58
2023/06/12 09:55:40;;;;;;;4.93;3.95;;;;;;;;;;5074225;28;20274;-57
2023/06/12 09:58:08;;;;;;;4.10;3.88;;;;;;;;;;5074672;28;20231;-58
2023/06/12 10:00:35;;;;;;;5.03;4.25;;;;;;;;;;5075019;28;20204;-57
2023/06/12 10:03:04;;;;;;;4.20;3.85;;;;;;;;;;5069482;28;20219;-58
2023/06/12 10:05:35;;;;;;;3.78;3.58;;;;;;;;;;5074143;28;20216;-57
2023/06/12 10:08:04;;;;;;;9.18;4.13;;;;;;;;;;5073377;28;20216;-58
2023/06/12 10:10:31;;;;;;;5.43;4.20;;;;;;;;;;5074595;28;20223;-58
2023/06/12 10:12:59;;;;;;;4.68;3.75;;;;;;;;;;5075104;28;20258;-56
2023/06/12 10:15:26;;;;;;;4.55;4.20;;;;;;;;;;5075431;28;20301;-58
2023/06/12 10:17:53;;;;;;;4.53;4.20;;;;;;;;;;5074872;28;20257;-58
2023/06/12 10:20:19;;;;;;;5.25;4.60;;;;;;;;;;5075393;28;20216;-57
2023/06/12 10:22:46;;;;;;;6.75;4.18;;;;;;;;;;5076924;28;20212;-59
2023/06/12 10:25:15;;;;;;;9.50;4.00;;;;;;;;;;5079055;28;20627;-59
2023/06/12 10:27:43;;;;;;;4.78;4.10;;;;;;;;;;5071129;28;20223;-59
2023/06/12 10:30:10;;;;;;;7.32;4.35;;;;;;;;;;5078421;28;20543;-59
2023/06/12 10:32:37;;;;;;;4.55;4.15;;;;;;;;;;5078474;28;20208;-59
2023/06/12 10:35:04;;;;;;;4.05;3.83;;;;;;;;;;5078868;28;20524;-58
2023/06/12 10:37:31;;;;;;;4.53;4.20;;;;;;;;;;5078891;28;20218;-59
2023/06/12 10:40:10;;;;;;;4.40;4.00;;;;;;;;;;5078878;28;20212;-59
2023/06/12 10:42:42;;;;;;;4.60;4.30;;;;;;;;;;5078226;28;20207;-58
2023/06/12 10:45:21;;;;;;;4.43;4.07;;;;;;;;;;5078223;28;20298;-59
2023/06/12 10:48:17;;;;;;;5.18;3.72;;;;;;;;;;5071409;28;20273;-56
2023/06/12 10:50:44;;;;;;;4.03;3.83;;;;;;;;;;5039668;28;20255;-59
2023/06/12 10:53:12;;;;;;;4.07;3.78;;;;;;;;;;5078211;28;20627;-58
2023/06/12 10:55:39;;;;;;;4.10;3.80;;;;;;;;;;5077438;28;20662;-58
2023/06/12 10:58:08;;;;;;;4.43;4.00;;;;;;;;;;5075965;28;20211;-58
2023/06/12 11:00:35;;;;;;;4.10;3.80;;;;;;;;;;5078095;28;20276;-59
2023/06/12 11:03:03;;;;;;;4.05;3.75;;;;;;;;;;5077667;28;20626;-58
2023/06/12 11:05:30;;;;;;;3.85;3.55;;;;;;;;;;5077816;28;20212;-58
2023/06/12 11:07:57;;;;;;;7.13;3.88;;;;;;;;;;5077099;28;20222;-59
2023/06/12 11:10:23;;;;;;;4.00;3.90;;;;;;;;;;5077863;28;20219;-59
2023/06/12 11:12:51;;;;;;;4.40;4.00;;;;;;;;;;5077659;28;20506;-59
2023/06/12 11:15:18;;;;;;;3.75;3.42;;;;;;;;;;5078143;28;20241;-58
2023/06/12 11:17:45;;;;;;;4.15;3.75;;;;;;;;;;5078160;28;20219;-58
2023/06/12 11:20:12;;;;;;;9.77;4.28;;;;;;;;;;5078402;28;20523;-58
2023/06/12 11:22:38;;;;;;;6.20;4.28;;;;;;;;;;5077830;28;20212;-59
2023/06/12 11:25:05;;;;;;;5.05;4.63;;;;;;;;;;5077394;28;20257;-58
2023/06/12 11:27:31;;;;;;;5.13;4.28;;;;;;;;;;5077287;28;20293;-58
2023/06/12 11:29:57;;;;;;;4.40;4.00;;;;;;;;;;5077724;28;20212;-58
2023/06/12 11:32:25;;;;;;;5.25;3.90;;;;;;;;;;5077674;28;20251;-58
2023/06/12 11:34:52;;;;;;;4.55;4.15;;;;;;;;;;5076261;28;20212;-58
2023/06/12 11:37:19;;;;;;;4.35;3.88;;;;;;;;;;5076554;28;20294;-58
2023/06/12 11:39:46;;;;;;;4.30;4.05;;;;;;;;;;5077277;28;20219;-59
2023/06/12 11:42:12;;;;;;;7.85;4.38;;;;;;;;;;5077579;28;20418;-58
2023/06/12 11:44:38;;;;;;;6.30;3.75;;;;;;;;;;5077587;28;20630;-57
2023/06/12 11:47:06;;;;;;;7.15;4.10;;;;;;;;;;5076778;28;20441;-57
2023/06/12 11:49:35;;;;;;;4.35;4.05;;;;;;;;;;5076903;28;20212;-58
2023/06/12 11:52:01;;;;;;;4.47;4.20;;;;;;;;;;5076935;28;20235;-59
2023/06/12 11:54:27;;;;;;;4.65;4.22;;;;;;;;;;5077402;28;20218;-59
2023/06/12 11:56:53;;;;;;;3.90;3.58;;;;;;;;;;5076319;28;20524;-59
2023/06/12 11:59:25;;;;;;;4.13;3.53;;;;;;;;;;5076914;28;20465;-58
2023/06/12 12:01:52;;;;;;;3.80;3.28;;;;;;;;;;5077113;28;20248;-58
2023/06/12 12:04:18;;;;;;;4.45;4.05;;;;;;;;;;5076597;28;20501;-58
2023/06/12 12:06:49;;;;;;;4.88;3.95;;;;;;;;;;5068657;28;20220;-58
2023/06/12 12:09:16;;;;;;;4.20;3.90;;;;;;;;;;5076650;28;20474;-58
2023/06/12 12:11:42;;;;;;;5.18;4.32;;;;;;;;;;5076116;28;20226;-57
2023/06/12 12:14:08;;;;;;;4.82;4.03;;;;;;;;;;5076262;28;20391;-58
2023/06/12 12:16:37;;;;;;;4.55;4.15;;;;;;;;;;5076511;28;20219;-59
2023/06/12 12:19:15;;;;;;;7.35;3.88;;;;;;;;;;5077055;28;20218;-59
2023/06/12 12:21:43;;;;;;;4.38;3.97;;;;;;;;;;5076658;28;20249;-59
2023/06/12 12:24:11;;;;;;;3.85;3.70;;;;;;;;;;5077005;28;20219;-59
2023/06/12 12:26:41;;;;;;;4.72;4.28;;;;;;;;;;5076654;28;20216;-59
2023/06/12 12:29:07;;;;;;;6.55;3.67;;;;;;;;;;5075867;28;20294;-58
2023/06/12 12:31:33;;;;;;;4.43;4.13;;;;;;;;;;5076793;28;20228;-59
2023/06/12 12:34:00;;;;;;;4.38;3.80;;;;;;;;;;5076578;28;20218;-58
2023/06/12 12:36:26;;;;;;;7.38;3.53;;;;;;;;;;5076572;28;20219;-58
2023/06/12 12:38:52;;;;;;;5.72;3.80;;;;;;;;;;5076257;28;20204;-58
2023/06/12 12:41:20;;;;;;;4.60;3.75;;;;;;;;;;5075792;28;20569;-58
2023/06/12 12:43:47;;;;;;;4.63;3.63;;;;;;;;;;5076238;28;20212;-58
2023/06/12 12:46:13;;;;;;;6.93;4.40;;;;;;;;;;5076245;28;20387;-59
2023/06/12 12:48:40;;;;;;;4.20;3.83;;;;;;;;;;5075790;28;20216;-59
2023/06/12 12:51:06;;;;;;;6.50;4.00;;;;;;;;;;5075683;28;20227;-58
2023/06/12 12:53:32;;;;;;;5.07;3.70;;;;;;;;;;5076286;28;20530;-58
2023/06/12 12:55:58;;;;;;;5.85;3.58;;;;;;;;;;5075773;28;20414;-59
2023/06/12 12:58:26;;;;;;;4.35;3.88;;;;;;;;;;5075401;28;20272;-57
2023/06/12 13:00:52;;;;;;;4.18;3.85;;;;;;;;;;5076771;28;20219;-58
2023/06/12 13:03:19;;;;;;;5.00;3.67;;;;;;;;;;5076227;28;20401;-59
2023/06/12 13:05:45;;;;;;;4.05;3.75;;;;;;;;;;5075760;28;20512;-58
2023/06/12 13:08:12;;;;;;;4.25;4.00;;;;;;;;;;5075793;28;20238;-58
2023/06/12 13:10:38;;;;;;;3.92;3.70;;;;;;;;;;5075409;28;20208;-58
2023/06/12 13:13:04;;;;;;;4.25;3.95;;;;;;;;;;5076209;28;20470;-58
2023/06/12 13:15:32;;;;;;;6.03;3.53;;;;;;;;;;5075934;28;20208;-59
2023/06/12 13:17:58;;;;;;;5.10;3.88;;;;;;;;;;5075239;28;20215;-58
2023/06/12 13:20:25;;;;;;;4.47;3.67;;;;;;;;;;5075315;28;20208;-59
2023/06/12 13:22:51;;;;;;;7.53;4.00;;;;;;;;;;5076067;28;20271;-58
2023/06/12 13:25:18;;;;;;;6.80;3.83;;;;;;;;;;5075963;28;20208;-59
2023/06/12 13:27:44;;;;;;;4.40;4.03;;;;;;;;;;5076026;28;20226;-58
2023/06/12 13:30:11;;;;;;;5.50;3.45;;;;;;;;;;5075743;28;20214;-58
2023/06/12 13:32:39;;;;;;;4.15;3.75;;;;;;;;;;5074847;28;20299;-58
2023/06/12 13:35:05;;;;;;;4.20;3.80;;;;;;;;;;5075367;28;20539;-58
2023/06/12 13:37:32;;;;;;;5.10;3.75;;;;;;;;;;5075446;28;20220;-58
2023/06/12 13:39:58;;;;;;;4.18;3.70;;;;;;;;;;5075646;28;20214;-57
2023/06/12 13:42:25;;;;;;;3.97;3.67;;;;;;;;;;5074983;28;20450;-57
2023/06/12 13:44:51;;;;;;;6.35;3.47;;;;;;;;;;5075648;28;20223;-57
2023/06/12 13:47:17;;;;;;;3.90;3.58;;;;;;;;;;5075319;28;20215;-57
2023/06/12 13:49:45;;;;;;;4.25;3.95;;;;;;;;;;5075569;28;20260;-56
2023/06/12 13:52:13;;;;;;;4.20;3.90;;;;;;;;;;5075055;28;20220;-56
2023/06/12 13:54:39;;;;;;;4.53;4.15;;;;;;;;;;5075287;28;20208;-56
2023/06/12 13:57:06;;;;;;;4.07;3.72;;;;;;;;;;5074114;28;20461;-57
2023/06/12 13:59:32;;;;;;;4.07;3.85;;;;;;;;;;5079194;28;20399;-56
2023/06/12 14:02:00;;;;;;;4.30;3.75;;;;;;;;;;5079112;28;20506;-58
2023/06/12 14:04:27;;;;;;;5.53;4.15;;;;;;;;;;5078744;28;20453;-57
2023/06/12 14:06:57;;;;;;;4.20;3.95;;;;;;;;;;5076050;28;20559;-58
2023/06/12 14:09:23;;;;;;;6.07;4.30;;;;;;;;;;5078699;28;20275;-57
2023/06/12 14:11:49;;;;;;;4.55;4.05;;;;;;;;;;5077453;28;20223;-58
2023/06/12 14:14:16;;;;;;;7.35;3.83;;;;;;;;;;5078831;28;20208;-57
2023/06/12 14:16:42;;;;;;;4.28;3.92;;;;;;;;;;5078810;28;20231;-57
2023/06/12 14:19:08;;;;;;;5.38;4.15;;;;;;;;;;5078893;28;20208;-57
2023/06/12 14:21:34;;;;;;;4.38;4.07;;;;;;;;;;5077543;28;20207;-57
2023/06/12 14:24:03;;;;;;;5.38;4.03;;;;;;;;;;5078324;28;20211;-58
2023/06/12 14:26:30;;;;;;;5.95;3.90;;;;;;;;;;5077440;28;20482;-58
2023/06/12 14:28:56;;;;;;;4.20;3.65;;;;;;;;;;5077315;28;20427;-58
2023/06/12 14:31:22;;;;;;;3.78;3.58;;;;;;;;;;5077601;28;20212;-58
2023/06/12 14:33:48;;;;;;;4.35;3.95;;;;;;;;;;5079010;28;20212;-57
2023/06/12 14:36:15;;;;;;;4.07;3.78;;;;;;;;;;5079017;28;20208;-58
2023/06/12 14:38:41;;;;;;;4.43;4.10;;;;;;;;;;5078942;28;20446;-74
2023/06/12 14:41:09;;;;;;;5.72;4.05;;;;;;;;;;5082065;28;20264;-75
2023/06/12 14:43:35;;;;;;;3.95;3.75;;;;;;;;;;5085023;28;20511;-75